Time;durP1;ratioP1;P1;durP2;ratioP2;P2;SDS_P1;SDS_P2;PMS_P1;PMS_P2;Temp;Humidity;BMP_temperature;BMP_pressure;BME280_temperature;BME280_humidity;BME280_pressure;Samples;Min_cycle;Max_cycle;Signal;HPM_P1;HPM_P2
2022/01/24 00:01:02;;;;;;;;;47.50;38.50;;;;;6.10;63.40;102795.66;5076345;28;45522;-76
2022/01/24 00:03:27;;;;;;;;;47.75;38.75;;;;;5.99;63.01;102780.25;5056746;28;45197;-77
2022/01/24 00:05:53;;;;;;;;;47.25;38.00;;;;;5.88;63.25;102763.13;5056355;28;45347;-75
2022/01/24 00:08:20;;;;;;;;;43.50;36.75;;;;;5.86;63.44;102754.44;5080886;28;45423;-76
2022/01/24 00:10:50;;;;;;;;;35.25;32.75;;;;;6.00;63.44;102789.03;5080182;28;45305;-77
2022/01/24 00:26:55;;;;;;;;;47.67;34.67;;;;;5.83;63.69;102768.63;5078574;28;45517;-76
2022/01/24 00:29:23;;;;;;;;;50.75;39.50;;;;;5.71;64.09;102751.50;5076535;28;48355;-75
2022/01/24 00:31:50;;;;;;;;;41.00;34.33;;;;;5.86;63.70;102757.06;5081700;28;45343;-77
2022/01/24 00:34:16;;;;;;;;;45.75;36.50;;;;;5.95;63.04;102767.25;5064877;28;45482;-78
2022/01/24 00:36:46;;;;;;;;;40.67;36.00;;;;;5.83;64.55;102778.31;5079979;28;45416;-77
2022/01/24 00:39:12;;;;;;;;;39.00;34.33;;;;;5.64;64.27;102757.09;5076997;28;46367;-76
2022/01/24 00:41:53;;;;;;;;;34.33;33.33;;;;;5.67;64.17;102755.19;5076649;28;45527;-78
2022/01/24 00:46:56;;;;;;;;;33.50;31.00;;;;;5.68;63.55;102756.91;5079028;28;45249;-75
2022/01/24 00:54:52;;;;;;;;;39.33;33.33;;;;;5.64;64.76;102757.97;5070610;28;45181;-76
2022/01/24 00:57:20;;;;;;;;;31.67;28.33;;;;;5.71;63.90;102751.50;5077594;28;45412;-76
2022/01/24 00:59:47;;;;;;;;;41.67;37.00;;;;;5.37;64.83;102698.38;5056840;28;47077;-76
2022/01/24 01:02:13;;;;;;;;;40.33;31.33;;;;;5.62;64.21;102746.59;5065510;28;45610;-76
2022/01/24 01:07:07;;;;;;;;;48.50;38.50;;;;;5.58;64.08;102742.34;5079161;28;45257;-76
2022/01/24 01:18:11;;;;;;;;;49.33;38.67;;;;;5.62;63.99;102725.50;5079443;28;45450;-77
2022/01/24 01:21:02;;;;;;;;;48.33;37.67;;;;;5.72;64.27;102755.84;5061614;28;47510;-77
2022/01/24 01:23:25;;;;;;;;;34.33;29.33;;;;;5.62;64.44;102738.69;5064641;28;45431;-78
2022/01/24 01:25:54;;;;;;;;;43.50;36.75;;;;;5.52;64.63;102734.69;5070265;28;45276;-76
2022/01/24 01:28:20;;;;;;;;;40.00;35.33;;;;;5.34;63.90;102694.09;5072438;28;45310;-77
2022/01/24 01:30:50;;;;;;;;;39.33;34.67;;;;;5.43;64.28;102708.72;5072426;28;45620;-76
2022/01/24 01:38:44;;;;;;;;;37.67;34.67;;;;;5.45;64.53;102713.00;5078291;28;45536;-76
2022/01/24 01:57:32;;;;;;;;;44.25;35.00;;;;;5.77;63.53;102750.38;5078218;28;45341;-77
2022/01/24 01:59:57;;;;;;;;;44.00;38.67;;;;;5.74;64.75;102746.09;5070739;28;45260;-75
2022/01/24 02:02:23;;;;;;;;;41.00;38.33;;;;;5.49;63.35;102705.81;5078078;28;47584;-76
2022/01/24 02:04:48;;;;;;;;;39.67;35.00;;;;;5.77;63.57;102750.38;5056703;28;45613;-77
2022/01/24 02:07:15;;;;;;;;;43.00;35.75;;;;;5.76;63.13;102744.22;5056410;28;45451;-76
2022/01/24 02:09:43;;;;;;;;;47.00;37.67;;;;;5.54;62.94;102705.63;5066622;28;45332;-76
2022/01/24 02:12:10;;;;;;;;;39.00;34.33;;;;;5.52;63.09;102697.75;5059761;28;45816;-78
2022/01/24 02:14:41;;;;;;;;;31.00;28.00;;;;;5.77;63.10;102750.38;5072796;28;45318;-77
2022/01/24 02:17:13;;;;;;;;;45.00;35.00;;;;;5.23;63.13;102661.19;5059844;28;45334;-73
2022/01/24 02:20:05;;;;;;;;;34.00;32.50;;;;;5.63;63.56;102742.19;5077297;28;45278;-78
2022/01/24 02:23:01;;;;;;;;;41.25;34.75;;;;;5.42;63.48;102699.09;5059406;28;48313;-74
2022/01/24 02:25:25;;;;;;;;;44.00;35.25;;;;;5.41;63.41;102700.88;5055354;28;45502;-75
2022/01/24 02:27:58;;;;;;;;;41.33;37.00;;;;;5.57;63.56;102738.00;5073124;28;45473;-75
2022/01/24 02:33:09;;;;;;;;;40.00;36.50;;;;;5.64;63.62;102736.00;5074795;28;45890;-75
2022/01/24 02:35:35;;;;;;;;;38.67;34.33;;;;;5.40;64.21;102687.72;5077770;28;45265;-76
2022/01/24 02:38:04;;;;;;;;;40.00;31.50;;;;;5.61;63.44;102723.78;5076922;28;45392;-77
2022/01/24 02:40:29;;;;;;;;;43.00;36.00;;;;;5.45;63.76;102693.69;5077181;28;45253;-76
2022/01/24 02:48:24;;;;;;;;;51.25;39.25;;;;;5.55;63.94;102728.44;5075804;28;45217;-74
2022/01/24 02:53:33;;;;;;;;;51.75;39.50;;;;;5.42;64.06;102714.91;5075227;28;45695;-78
2022/01/24 02:55:59;;;;;;;;;45.25;36.75;;;;;5.25;64.03;102685.72;5068629;28;45577;-76
2022/01/24 02:58:25;;;;;;;;;40.50;35.00;;;;;4.93;64.58;102629.88;5058660;28;45331;-75
2022/01/24 03:00:52;;;;;;;;;41.67;38.33;;;;;5.28;64.56;102704.06;5076632;28;45296;-77
2022/01/24 03:03:19;;;;;;;;;40.00;33.50;;;;;5.32;64.80;102713.56;5076443;28;46233;-74
2022/01/24 03:05:44;;;;;;;;;42.67;37.33;;;;;5.16;64.50;102674.59;5074551;28;45553;-75
2022/01/24 03:08:10;;;;;;;;;43.00;35.67;;;;;5.37;63.95;102714.22;5077111;28;45371;-73
2022/01/24 03:10:40;;;;;;;;;43.75;37.50;;;;;5.33;64.29;102697.66;5080180;28;45486;-75
2022/01/24 03:13:30;;;;;;;;;40.25;33.50;;;;;5.42;63.92;102701.72;5069230;28;47770;-75
2022/01/24 03:15:57;;;;;;;;;53.25;41.00;;;;;5.43;63.66;102693.75;5080059;28;45463;-75
2022/01/24 03:18:23;;;;;;;;;52.00;40.00;;;;;5.50;63.86;102716.31;5063185;28;45566;-75
2022/01/24 03:20:49;;;;;;;;;41.00;33.50;;;;;5.22;64.50;102662.13;5079711;28;45289;-76
2022/01/24 03:23:18;;;;;;;;;40.75;36.75;;;;;5.35;64.18;102680.00;5061010;28;47661;-76
2022/01/24 03:25:44;;;;;;;;;45.75;36.50;;;;;5.28;63.69;102688.22;5061168;28;45970;-77
2022/01/24 03:28:10;;;;;;;;;47.00;38.67;;;;;4.99;64.39;102637.50;5060789;28;45261;-77
2022/01/24 03:30:37;;;;;;;;;42.50;37.75;;;;;4.68;63.41;102581.72;5060800;28;45624;-77
2022/01/24 03:33:04;;;;;;;;;53.25;39.25;;;;;5.21;64.23;102673.59;5078544;28;46743;-77
2022/01/24 03:35:30;;;;;;;;;46.75;39.25;;;;;5.25;64.49;102677.81;5061476;28;45366;-76
2022/01/24 03:37:55;;;;;;;;;43.67;38.00;;;;;5.14;64.20;102665.91;5052571;28;45484;-75
2022/01/24 03:40:21;;;;;;;;;48.33;39.00;;;;;5.33;64.08;102688.88;5060524;28;45275;-77
2022/01/24 03:42:47;;;;;;;;;51.00;37.67;;;;;5.22;63.88;102659.47;5060012;28;47156;-78
2022/01/24 03:45:12;;;;;;;;;52.50;39.00;;;;;5.23;63.89;102663.84;5079357;28;45516;-76
2022/01/24 03:50:19;;;;;;;;;41.75;36.50;;;;;4.78;64.23;102609.38;5079167;28;45419;-76
2022/01/24 03:52:45;;;;;;;;;50.50;38.75;;;;;5.10;64.64;102685.41;5078973;28;45797;-75
2022/01/24 03:55:11;;;;;;;;;49.50;40.00;;;;;5.07;64.89;102682.03;5077140;28;46182;-73
2022/01/24 03:57:37;;;;;;;;;42.25;38.00;;;;;5.02;65.18;102681.38;5079007;28;45596;-77
2022/01/24 04:00:08;;;;;;;;;49.50;37.50;;;;;5.03;64.56;102677.81;5079149;28;45411;-78
2022/01/24 04:02:35;;;;;;;;;38.00;34.00;;;;;4.70;64.94;102633.41;5072860;28;46193;-76
2022/01/24 04:05:01;;;;;;;;;30.00;25.00;;;;;5.00;64.59;102685.81;5074282;28;45561;-76
2022/01/24 04:07:26;;;;;;;;;40.75;35.25;;;;;4.46;64.85;102608.03;5060302;28;45275;-75
2022/01/24 04:09:52;;;;;;;;;44.25;37.50;;;;;4.82;65.08;102664.56;5078661;28;45512;-76
2022/01/24 04:12:17;;;;;;;;;43.50;36.25;;;;;4.87;64.92;102652.06;5068484;28;46564;-77
2022/01/24 04:22:12;;;;;;;;;45.75;38.25;;;;;5.01;65.87;102667.34;5069985;28;45815;-76
2022/01/24 04:24:38;;;;;;;;;37.50;35.25;;;;;4.62;64.61;102608.31;5067233;28;45571;-76
2022/01/24 04:27:05;;;;;;;;;35.25;33.75;;;;;4.65;64.90;102618.72;5082306;28;45526;-74
2022/01/24 04:29:32;;;;;;;;;40.33;35.33;;;;;4.90;65.08;102664.25;5071278;27;45544;-76
2022/01/24 04:31:57;;;;;;;;;37.00;30.75;;;;;4.20;65.77;102558.97;5077351;28;45536;-77
2022/01/24 04:34:22;;;;;;;;;36.00;32.67;;;;;4.81;65.75;102673.41;5080251;28;45538;-76
2022/01/24 04:36:48;;;;;;;;;43.00;35.50;;;;;4.26;64.83;102564.03;5079467;28;45426;-76
2022/01/24 04:39:15;;;;;;;;;35.33;32.33;;;;;4.85;65.46;102660.94;5078129;28;45459;-76
2022/01/24 04:41:45;;;;;;;;;36.67;32.67;;;;;4.71;66.02;102650.94;5069732;28;45662;-75
2022/01/24 04:54:41;;;;;;;;;43.25;37.00;;;;;4.71;65.30;102668.53;5077118;28;45228;-76
2022/01/24 04:57:16;;;;;;;;;47.50;36.00;;;;;4.71;66.07;102679.06;5078261;28;45611;-77
2022/01/24 04:59:44;;;;;;;;;43.75;38.00;;;;;4.50;65.59;102636.81;5077846;28;45422;-76
2022/01/24 05:02:10;;;;;;;;;45.50;36.25;;;;;4.46;65.34;102622.06;5077222;28;46724;-74
2022/01/24 05:04:36;;;;;;;;;38.67;36.00;;;;;4.85;65.62;102674.97;5075898;28;45692;-76
2022/01/24 05:07:03;;;;;;;;;49.25;39.00;;;;;4.74;65.33;102660.50;5049456;28;45498;-77
2022/01/24 05:09:34;;;;;;;;;44.00;37.00;;;;;4.74;65.81;102665.75;5077783;28;45286;-77
2022/01/24 05:12:09;;;;;;;;;42.67;37.00;;;;;4.86;65.88;102676.69;5072725;28;48611;-76
2022/01/24 05:25:31;;;;;;;;;39.50;34.50;;;;;4.68;65.23;102644.94;5077091;28;45303;-74
2022/01/24 05:27:57;;;;;;;;;45.25;36.00;;;;;4.79;64.93;102667.28;5077427;28;45367;-75
2022/01/24 05:30:22;;;;;;;;;43.75;37.25;;;;;4.82;65.85;102679.53;5076969;28;45327;-75
2022/01/24 05:32:48;;;;;;;;;47.50;36.25;;;;;4.55;65.14;102634.00;5077039;28;46145;-76
2022/01/24 05:35:13;;;;;;;;;49.75;38.00;;;;;4.50;65.58;102628.91;5079227;28;45462;-76
2022/01/24 05:37:39;;;;;;;;;37.00;32.33;;;;;4.76;65.72;102671.84;5074178;28;45303;-74
2022/01/24 05:40:06;;;;;;;;;47.67;38.33;;;;;4.65;65.40;102655.59;5077016;28;45258;-76
2022/01/24 05:42:31;;;;;;;;;45.25;37.00;;;;;4.76;65.33;102669.19;5076620;28;47174;-74
2022/01/24 05:44:58;;;;;;;;;41.50;36.25;;;;;4.51;65.40;102638.53;5076403;28;45438;-75
2022/01/24 05:47:23;;;;;;;;;43.75;37.25;;;;;4.44;66.19;102613.34;5077706;27;45506;-74
2022/01/24 05:49:49;;;;;;;;;42.67;36.00;;;;;4.56;65.86;102630.44;5067971;28;45478;-76
2022/01/24 05:52:14;;;;;;;;;50.75;37.75;;;;;4.78;65.48;102662.09;5072731;28;45546;-76
2022/01/24 05:54:41;;;;;;;;;51.00;39.00;;;;;4.76;66.13;102658.66;5071300;28;46057;-76
2022/01/24 05:57:07;;;;;;;;;45.75;36.75;;;;;4.78;66.04;102662.94;5077081;28;45564;-76
2022/01/24 05:59:33;;;;;;;;;37.25;35.50;;;;;4.68;65.43;102679.19;5079672;28;45387;-74
2022/01/24 06:01:58;;;;;;;;;44.25;38.50;;;;;4.54;66.22;102662.13;5075634;28;48263;-76
2022/01/24 06:04:24;;;;;;;;;43.75;38.25;;;;;4.41;65.46;102650.34;5058459;28;46175;-76
2022/01/24 06:06:49;;;;;;;;;48.00;34.50;;;;;4.45;65.68;102657.22;5059027;28;45376;-76
2022/01/24 06:09:15;;;;;;;;;41.25;36.50;;;;;4.49;66.81;102656.19;5058897;28;46153;-75
2022/01/24 06:11:41;;;;;;;;;47.00;36.75;;;;;4.59;66.40;102661.94;5057826;28;47951;-77
2022/01/24 06:14:06;;;;;;;;;48.25;37.50;;;;;4.41;66.09;102637.19;5075234;28;45613;-76
2022/01/24 06:16:32;;;;;;;;;43.25;36.50;;;;;4.21;66.79;102605.47;5077126;28;45312;-75
2022/01/24 06:18:58;;;;;;;;;54.75;40.00;;;;;4.61;66.27;102673.31;5058650;28;45532;-74
2022/01/24 06:21:23;;;;;;;;;41.00;35.75;;;;;4.46;66.31;102648.41;5057815;28;47233;-76
2022/01/24 06:23:49;;;;;;;;;46.33;37.67;;;;;4.40;66.34;102653.00;5076744;28;45264;-77
2022/01/24 06:26:15;;;;;;;;;42.00;36.25;;;;;4.52;66.18;102666.59;5058563;28;45324;-75
2022/01/24 06:28:40;;;;;;;;;53.75;42.25;;;;;4.58;66.15;102673.38;5075660;28;45583;-74
2022/01/24 06:31:06;;;;;;;;;41.00;36.00;;;;;4.35;66.04;102632.13;5075319;28;48383;-78
2022/01/24 06:33:32;;;;;;;;;46.50;34.75;;;;;4.63;65.80;102686.41;5059745;28;45491;-76
2022/01/24 06:35:57;;;;;;;;;38.33;34.00;;;;;4.37;66.12;102643.47;5054574;28;45521;-77
2022/01/24 06:38:23;;;;;;;;;46.50;36.25;;;;;4.38;65.84;102653.06;5075325;28;45654;-77
2022/01/24 06:40:48;;;;;;;;;45.25;38.00;;;;;4.44;66.47;102684.47;5058223;28;48631;-77
2022/01/24 06:43:14;;;;;;;;;44.50;34.50;;;;;4.44;66.44;102679.19;5076378;28;45367;-76
2022/01/24 06:45:40;;;;;;;;;43.25;34.50;;;;;4.44;66.21;102678.34;5071367;28;45489;-76
2022/01/24 06:48:05;;;;;;;;;49.75;39.25;;;;;4.34;66.72;102672.53;5080671;28;45349;-77
2022/01/24 06:50:30;;;;;;;;;42.25;37.50;;;;;4.41;66.38;102675.81;5063257;28;48270;-78
2022/01/24 06:52:56;;;;;;;;;48.25;39.00;;;;;4.38;66.37;102674.13;5076873;28;45300;-76
2022/01/24 06:55:21;;;;;;;;;54.75;39.00;;;;;4.37;66.20;102675.06;5078844;28;45245;-74
2022/01/24 06:57:47;;;;;;;;;43.75;39.25;;;;;4.45;66.14;102686.19;5079323;28;45285;-78
2022/01/24 07:00:13;;;;;;;;;46.00;39.00;;;;;4.53;66.08;102694.66;5064830;28;48822;-77
2022/01/24 07:02:38;;;;;;;;;52.75;39.25;;;;;4.47;65.99;102679.06;5078068;28;45855;-76
2022/01/24 07:05:04;;;;;;;;;47.25;35.25;;;;;4.55;66.81;102692.81;5079241;28;45456;-78
2022/01/24 07:07:30;;;;;;;;;39.25;34.00;;;;;4.51;66.14;102685.94;5071477;28;45367;-81
2022/01/24 07:09:56;;;;;;;;;38.75;35.00;;;;;4.44;65.92;102671.28;5077629;28;47509;-79
2022/01/24 07:12:24;;;;;;;;;41.50;35.50;;;;;4.42;66.36;102681.03;5062515;28;45567;-77
2022/01/24 07:14:49;;;;;;;;;38.00;34.00;;;;;4.32;66.20;102671.75;5068074;28;45324;-78
2022/01/24 07:19:43;;;;;;;;;44.00;36.75;;;;;4.23;66.39;102643.13;5069669;28;45992;-74
2022/01/24 07:22:08;;;;;;;;;36.00;32.50;;;;;4.38;66.67;102699.63;5079604;28;45266;-80
2022/01/24 07:24:35;;;;;;;;;41.50;35.00;;;;;4.10;66.70;102636.59;5078587;28;45559;-76
2022/01/24 07:27:02;;;;;;;;;43.75;36.25;;;;;3.91;66.64;102595.16;5061650;28;45402;-77
2022/01/24 07:29:28;;;;;;;;;41.75;32.50;;;;;4.58;66.21;102697.97;5073056;27;46849;-78
2022/01/24 07:31:53;;;;;;;;;53.50;41.75;;;;;4.34;65.76;102651.47;5075157;28;45463;-76
2022/01/24 07:34:19;;;;;;;;;48.75;37.50;;;;;4.45;66.10;102673.00;5083861;27;45406;-78
2022/01/24 07:36:45;;;;;;;;;43.50;36.50;;;;;4.39;66.17;102681.13;5078247;27;45667;-78
2022/01/24 07:39:10;;;;;;;;;22.25;18.25;;;;;4.43;66.31;102698.56;5060834;28;47129;-77
2022/01/24 07:41:43;;;;;;;;;45.25;39.25;;;;;4.35;66.87;102679.53;5062850;28;45476;-76
2022/01/24 07:44:10;;;;;;;;;48.00;39.50;;;;;4.46;66.61;102679.13;5080350;28;45407;-78
2022/01/24 07:46:35;;;;;;;;;39.25;32.50;;;;;4.47;66.24;102678.22;5075990;27;45403;-77
2022/01/24 07:49:03;;;;;;;;;49.50;36.50;;;;;4.48;66.46;102691.34;5078946;28;45491;-78
2022/01/24 07:51:28;;;;;;;;;43.75;36.00;;;;;4.37;65.95;102669.78;5072713;28;45209;-76
2022/01/24 07:53:54;;;;;;;;;42.00;37.75;;;;;4.33;66.44;102660.28;5076303;28;45265;-77
2022/01/24 07:56:19;;;;;;;;;38.75;36.25;;;;;4.00;65.39;102598.34;5061965;28;45515;-78
2022/01/24 07:58:45;;;;;;;;;43.25;37.25;;;;;4.62;65.74;102697.88;5079386;27;46420;-75
2022/01/24 08:01:12;;;;;;;;;47.25;38.25;;;;;4.62;65.61;102682.91;5060358;28;45461;-77
2022/01/24 08:03:38;;;;;;;;;36.25;34.50;;;;;4.53;65.77;102684.09;5075687;28;45272;-77
2022/01/24 08:06:03;;;;;;;;;53.00;39.25;;;;;4.45;65.42;102670.38;5071842;28;45315;-76
2022/01/24 08:08:31;;;;;;;;;50.00;40.00;;;;;4.73;64.94;102711.47;5060704;28;47397;-77
2022/01/24 08:10:57;;;;;;;;;50.00;37.75;;;;;4.63;64.88;102696.94;5064055;28;45436;-77
2022/01/24 08:13:26;;;;;;;;;41.25;34.00;;;;;4.74;65.29;102718.47;5061175;28;45312;-78
2022/01/24 08:15:51;;;;;;;;;43.25;38.25;;;;;4.61;64.96;102694.38;5055737;28;45624;-76
2022/01/24 08:18:17;;;;;;;;;46.00;38.25;;;;;4.75;64.77;102714.91;5060539;28;48131;-77
2022/01/24 08:20:46;;;;;;;;;49.25;37.75;;;;;4.72;65.39;102715.03;5061626;28;45514;-77
2022/01/24 08:23:12;;;;;;;;;41.25;36.25;;;;;4.13;65.01;102636.47;5054609;28;45517;-79
2022/01/24 08:25:41;;;;;;;;;48.50;38.00;;;;;4.46;65.53;102703.69;5059465;28;45624;-77
2022/01/24 08:28:06;;;;;;;;;59.00;43.75;;;;;4.52;65.88;102719.28;5052416;28;45818;-78
2022/01/24 08:30:32;;;;;;;;;38.50;32.75;;;;;4.34;65.99;102683.06;5074863;28;45258;-78
2022/01/24 08:32:58;;;;;;;;;41.50;34.50;;;;;4.56;65.16;102720.00;5061218;28;45373;-78
2022/01/24 08:35:24;;;;;;;;;52.25;41.00;;;;;4.47;65.71;102713.31;5080732;28;45354;-77
2022/01/24 08:37:50;;;;;;;;;51.25;40.75;;;;;4.56;65.74;102726.13;5068458;28;45527;-78
2022/01/24 08:40:23;;;;;;;;;43.25;35.50;;;;;4.52;65.58;102703.47;5076909;28;45421;-78
2022/01/24 08:43:06;;;;;;;;;46.50;39.25;;;;;4.83;65.46;102724.25;5074267;27;45520;-78
2022/01/24 08:45:44;;;;;;;;;45.00;37.50;;;;;5.04;64.19;102729.63;5078466;27;45624;-77
2022/01/24 08:48:13;;;;;;;;;39.25;34.00;;;;;4.90;63.21;102682.69;5060025;28;47880;-78
2022/01/24 08:50:39;;;;;;;;;44.50;38.50;;;;;5.13;64.15;102709.00;5077815;28;45319;-77
2022/01/24 08:53:05;;;;;;;;;43.75;36.00;;;;;5.48;62.78;102739.25;5072821;28;45422;-77
2022/01/24 08:55:34;;;;;;;;;41.25;35.50;;;;;5.55;62.31;102729.28;5077295;28;45218;-78
2022/01/24 08:58:01;;;;;;;;;45.00;40.00;;;;;5.04;62.62;102611.84;5078255;28;45575;-76
2022/01/24 09:00:34;;;;;;;;;48.50;38.00;;;;;5.91;62.21;102731.34;5059751;28;45408;-79
2022/01/24 09:02:59;;;;;;;;;40.00;34.50;;;;;6.01;61.55;102723.00;5077046;28;46556;-77
2022/01/24 09:05:27;;;;;;;;;46.00;37.25;;;;;5.80;60.90;102676.34;5070357;28;45531;-77
2022/01/24 09:07:53;;;;;;;;;49.50;36.50;;;;;6.31;60.63;102739.28;5065709;28;47097;-79
2022/01/24 09:10:23;;;;;;;;;47.00;37.75;;;;;6.42;60.74;102737.94;5074974;28;45456;-77
2022/01/24 09:12:49;;;;;;;;;40.00;32.75;;;;;6.36;60.08;102696.78;5060078;28;45434;-76
2022/01/24 09:15:15;;;;;;;;;52.25;41.50;;;;;6.75;59.38;102744.31;5053506;28;45649;-78
2022/01/24 09:17:42;;;;;;;;;46.25;37.75;;;;;6.82;58.53;102735.22;5065712;28;45489;-78
2022/01/24 09:20:08;;;;;;;;;48.25;37.00;;;;;6.82;59.52;102737.00;5065323;28;45265;-79
2022/01/24 09:22:34;;;;;;;;;52.75;38.25;;;;;6.81;58.66;102730.84;5059545;28;45458;-78
2022/01/24 09:25:01;;;;;;;;;47.00;39.00;;;;;6.89;58.09;102743.69;5056767;28;45599;-77
2022/01/24 09:27:27;;;;;;;;;44.00;37.00;;;;;6.64;58.19;102707.84;5061506;27;46764;-78
2022/01/24 09:29:52;;;;;;;;;46.75;37.50;;;;;6.66;58.60;102705.13;5080046;27;45450;-76
2022/01/24 09:32:18;;;;;;;;;40.50;35.00;;;;;6.85;57.54;102737.69;5075104;28;45439;-77
2022/01/24 09:34:43;;;;;;;;;52.25;39.00;;;;;6.68;58.49;102727.06;5081438;27;45382;-78
2022/01/24 09:37:09;;;;;;;;;43.00;35.00;;;;;6.64;58.60;102739.56;5072948;27;45373;-79
2022/01/24 09:39:36;;;;;;;;;48.75;37.50;;;;;6.48;58.87;102701.53;5066852;28;45403;-76
2022/01/24 09:42:02;;;;;;;;;47.00;38.50;;;;;6.73;59.04;102748.84;5077282;28;45244;-78
2022/01/24 09:44:27;;;;;;;;;51.75;40.25;;;;;6.67;58.75;102725.34;5074715;28;45485;-77
2022/01/24 09:46:55;;;;;;;;;50.50;40.00;;;;;6.58;59.06;102694.88;5076454;28;45565;-77
2022/01/24 09:49:21;;;;;;;;;48.75;38.75;;;;;6.91;58.63;102737.41;5055876;28;45905;-78
2022/01/24 09:51:46;;;;;;;;;43.00;36.75;;;;;6.88;58.49;102719.06;5067801;28;45548;-79
2022/01/24 09:54:15;;;;;;;;;22.75;14.75;;;;;6.65;58.23;102671.69;5069756;28;45627;-78
2022/01/24 09:56:44;;;;;;;;;45.50;39.75;;;;;7.13;57.59;102749.63;5076086;28;45404;-77
2022/01/24 09:59:09;;;;;;;;;39.00;33.33;;;;;7.00;57.81;102731.69;5075661;28;45407;-77
2022/01/24 10:01:35;;;;;;;;;49.33;40.00;;;;;6.57;57.63;102655.31;5077804;28;45439;-76
2022/01/24 10:04:23;;;;;;;;;42.00;37.00;;;;;6.89;57.54;102714.63;5068227;28;45315;-77
2022/01/24 10:07:01;;;;;;;;;44.00;37.75;;;;;6.32;58.00;102621.25;5076908;28;47034;-77
2022/01/24 10:09:33;;;;;;;;;46.00;36.25;;;;;6.85;57.92;102710.41;5057857;28;45515;-79
2022/01/24 10:12:21;;;;;;;;;38.50;33.00;;;;;6.61;57.30;102676.28;5074677;28;45421;-79
2022/01/24 10:17:36;;;;;;;;;46.50;38.50;;;;;6.90;57.50;102733.06;5076861;28;45301;-78
2022/01/24 10:20:31;;;;;;;;;51.25;40.25;;;;;6.94;58.39;102744.34;5081064;28;45422;-80
2022/01/24 10:23:26;;;;;;;;;46.75;38.00;;;;;7.03;57.90;102737.78;5080084;28;45351;-77
2022/01/24 10:26:04;;;;;;;;;49.25;38.75;;;;;7.03;58.27;102724.56;5080704;28;45434;-79
2022/01/24 10:28:30;;;;;;;;;50.67;40.00;;;;;7.10;57.79;102733.91;5062236;28;47566;-81
2022/01/24 10:31:16;;;;;;;;;51.25;39.25;;;;;7.12;58.46;102739.97;5080567;28;45322;-80
2022/01/24 10:36:41;;;;;;;;;54.00;43.25;;;;;7.15;57.88;102739.81;5085629;28;45462;-79
2022/01/24 10:39:12;;;;;;;;;51.25;41.75;;;;;7.13;57.08;102746.97;5073865;28;47816;-77
2022/01/24 10:44:32;;;;;;;;;55.75;42.00;;;;;6.83;57.68;102691.97;5074946;28;45494;-80
2022/01/24 10:47:24;;;;;;;;;51.25;40.75;;;;;7.05;57.65;102727.97;5080587;28;45358;-79
2022/01/24 10:49:52;;;;;;;;;41.00;36.25;;;;;6.82;57.17;102699.97;5080961;28;46030;-78
2022/01/24 10:52:21;;;;;;;;;58.50;44.00;;;;;6.95;57.56;102725.75;5058942;28;45684;-77
2022/01/24 10:54:49;;;;;;;;;45.50;38.25;;;;;6.92;58.12;102723.25;5057400;28;45392;-78
2022/01/24 10:57:26;;;;;;;;;41.75;36.00;;;;;6.77;58.18;102702.81;5083507;28;45439;-78
2022/01/24 11:00:14;;;;;;;;;44.00;37.50;;;;;6.49;57.65;102662.75;5086701;28;45534;-78
2022/01/24 11:02:42;;;;;;;;;45.75;37.75;;;;;6.59;58.19;102666.66;5092355;28;45541;-77
2022/01/24 11:05:15;;;;;;;;;41.00;34.50;;;;;6.77;58.27;102691.38;5062251;28;45277;-79
2022/01/24 11:07:51;;;;;;;;;53.00;39.75;;;;;6.71;58.65;102681.97;5074812;28;45317;-79
2022/01/24 11:10:17;;;;;;;;;44.75;36.75;;;;;6.66;58.34;102673.41;5070824;27;47304;-81
2022/01/24 11:12:43;;;;;;;;;32.00;30.00;;;;;6.75;57.86;102677.38;5064794;28;45486;-82
2022/01/24 11:15:10;;;;;;;;;49.75;38.75;;;;;6.62;58.23;102672.69;5067408;28;45540;-78
2022/01/24 11:17:36;;;;;;;;;45.00;39.25;;;;;6.81;59.05;102701.78;5082367;28;45356;-81
2022/01/24 11:20:03;;;;;;;;;38.25;33.75;;;;;6.79;58.47;102681.59;5064544;28;48157;-81
2022/01/24 11:22:33;;;;;;;;;46.50;40.00;;;;;6.79;58.51;102669.22;5082488;28;45336;-80
2022/01/24 11:25:03;;;;;;;;;55.00;41.75;;;;;6.44;58.41;102630.41;5068330;28;45462;-79
2022/01/24 11:27:29;;;;;;;;;46.00;38.75;;;;;6.78;58.43;102667.53;5080918;28;45505;-80
2022/01/24 11:29:58;;;;;;;;;49.25;37.00;;;;;6.74;58.16;102665.97;5083738;28;45501;-79
2022/01/24 11:32:36;;;;;;;;;46.00;37.50;;;;;6.63;58.45;102636.56;5058577;28;45461;-82
2022/01/24 11:35:02;;;;;;;;;37.00;33.33;;;;;6.98;58.14;102685.94;5057131;28;45365;-82
2022/01/24 11:37:38;;;;;;;;;46.00;36.00;;;;;7.13;57.93;102688.78;5062525;28;45628;-79
2022/01/24 11:40:06;;;;;;;;;45.75;39.00;;;;;7.07;57.41;102679.38;5062598;28;48130;-81
2022/01/24 11:42:34;;;;;;;;;39.00;37.00;;;;;7.17;57.29;102674.47;5049867;28;45406;-79
2022/01/24 11:45:05;;;;;;;;;42.25;34.75;;;;;7.27;57.53;102687.19;5076897;28;45517;-80
2022/01/24 11:47:33;;;;;;;;;51.00;38.75;;;;;7.29;57.27;102673.88;5062547;28;45418;-79
2022/01/24 11:50:22;;;;;;;;;49.25;39.00;;;;;7.34;57.02;102677.16;5066682;28;47933;-79
2022/01/24 11:52:51;;;;;;;;;39.75;35.25;;;;;7.39;57.08;102671.63;5064719;28;45480;-78
2022/01/24 11:55:31;;;;;;;;;46.00;36.00;;;;;7.43;56.88;102682.00;5055185;28;45472;-80
2022/01/24 11:58:04;;;;;;;;;45.50;38.25;;;;;7.35;57.14;102660.34;5063012;28;45498;-78
2022/01/24 12:00:38;;;;;;;;;47.25;39.00;;;;;7.41;57.24;102673.28;5060585;28;47799;-78
2022/01/24 12:03:17;;;;;;;;;47.25;38.50;;;;;7.44;56.81;102664.34;5062537;28;45398;-80
2022/01/24 12:05:44;;;;;;;;;52.75;40.50;;;;;7.48;56.51;102679.97;5062232;28;45632;-82
2022/01/24 12:08:34;;;;;;;;;50.00;40.00;;;;;7.45;56.88;102664.25;5063514;28;45632;-79
2022/01/24 12:11:20;;;;;;;;;52.75;38.50;;;;;7.57;57.09;102654.81;5077156;28;46227;-75
2022/01/24 12:13:49;;;;;;;;;52.00;41.00;;;;;7.62;56.51;102677.50;5061732;28;46029;-81
2022/01/24 12:16:17;;;;;;;;;41.50;35.00;;;;;7.40;56.25;102629.22;5060940;28;45265;-79
2022/01/24 12:18:44;;;;;;;;;47.25;38.25;;;;;7.67;56.77;102673.75;5061433;28;45376;-80
2022/01/24 12:21:13;;;;;;;;;44.25;36.75;;;;;7.68;56.73;102672.81;5060861;28;46519;-83
2022/01/24 12:23:42;;;;;;;;;47.75;41.25;;;;;7.56;57.03;102650.47;5079580;28;45526;-78
2022/01/24 12:26:14;;;;;;;;;45.00;38.33;;;;;7.59;56.68;102645.88;5078476;28;45664;-80
2022/01/24 12:28:42;;;;;;;;;46.50;40.00;;;;;7.80;55.97;102664.22;5071668;28;45557;-79
2022/01/24 12:31:25;;;;;;;;;51.25;40.75;;;;;7.76;56.33;102658.25;5070275;28;48434;-79
2022/01/24 12:33:53;;;;;;;;;44.00;39.00;;;;;7.71;56.26;102662.06;5078320;28;45266;-81
2022/01/24 12:37:22;;;;;;;;;42.75;36.50;;;;;7.72;56.43;102661.13;5082867;28;45522;-78
2022/01/24 12:39:33;;;;;;;;;47.00;38.25;;;;;7.80;56.39;102653.66;5069144;28;45615;-79
2022/01/24 12:42:18;;;;;;;;;42.50;35.75;;;;;7.76;55.47;102649.44;5060464;28;47753;-79
2022/01/24 12:47:12;;;;;;;;;48.50;38.75;;;;;7.79;56.13;102659.88;5074758;28;45529;-78
2022/01/24 12:49:42;;;;;;;;;40.75;35.25;;;;;7.83;56.24;102654.38;5059424;28;45616;-80
2022/01/24 12:52:14;;;;;;;;;43.00;36.75;;;;;7.69;55.77;102605.72;5078528;28;45925;-80
2022/01/24 12:54:42;;;;;;;;;38.25;36.00;;;;;7.99;56.06;102632.34;5077573;28;45493;-76
2022/01/24 12:57:11;;;;;;;;;52.25;40.25;;;;;8.07;55.64;102644.28;5079550;28;45450;-80
2022/01/24 12:59:50;;;;;;;;;44.67;37.00;;;;;8.02;55.56;102637.50;5058197;28;45799;-82
2022/01/24 13:02:23;;;;;;;;;44.50;37.75;;;;;8.05;55.31;102622.31;5070569;28;47616;-79
2022/01/24 13:04:51;;;;;;;;;40.25;33.75;;;;;7.86;54.86;102584.50;5058827;28;45818;-78
2022/01/24 13:07:17;;;;;;;;;50.75;41.00;;;;;8.19;54.88;102635.66;5075763;28;45848;-79
2022/01/24 13:09:42;;;;;;;;;68.50;53.25;;;;;8.17;55.76;102628.72;5060402;28;45476;-76
2022/01/24 13:12:10;;;;;;;;;45.00;35.25;;;;;8.21;55.16;102619.69;5059049;28;48115;-79
2022/01/24 13:14:44;;;;;;;;;49.75;41.75;;;;;8.34;54.10;102634.00;5062040;28;45660;-80